UPS912 RKSS-RJNA
Flight info
| Callsign | UPS912 |
|---|---|
| Flight time | 1h 27m |
| Altitude | 33000 |
| Route | EGOBA Y697 LANAT DCT ROKKO SANDA OLKED SHIMA |
| Aircraft | B722/M-SDFGHRWY/C |
Departure
| Time | 2026-04-26 07:32 |
|---|---|
| Airport | Gimpo International Airport (RKSS) |
Arrival
| Time | 2026-04-26 09:00 |
|---|---|
| Airport | Nagoya Airport / JASDF Komaki Air Base (RJNA) |
| Time | Latitude | Longitude | Altitude | Speed | Heading |
|---|---|---|---|---|---|
| 2026-04-26 06:51 | 37.55287 | 126.80542 | 49 ft | 0 kts | 226° |
| 2026-04-26 07:22 | 37.55300 | 126.80559 | 49 ft | 4 kts | 222° |
| 2026-04-26 07:22 | 37.55321 | 126.80580 | 46 ft | 4 kts | 214° |
| 2026-04-26 07:23 | 37.55344 | 126.80597 | 49 ft | 4 kts | 206° |
| 2026-04-26 07:23 | 37.55356 | 126.80604 | 45 ft | 1 kts | 205° |
| 2026-04-26 07:23 | 37.55357 | 126.80605 | 45 ft | 0 kts | 205° |
| 2026-04-26 07:28 | 37.55356 | 126.80604 | 47 ft | 1 kts | 201° |
| 2026-04-26 07:28 | 37.55348 | 126.80603 | 47 ft | 1 kts | 178° |
| 2026-04-26 07:29 | 37.55340 | 126.80608 | 49 ft | 2 kts | 137° |
| 2026-04-26 07:29 | 37.55317 | 126.80636 | 47 ft | 8 kts | 140° |
| 2026-04-26 07:29 | 37.55258 | 126.80644 | 44 ft | 11 kts | 205° |
| 2026-04-26 07:29 | 37.55190 | 126.80573 | 47 ft | 15 kts | 224° |
| 2026-04-26 07:30 | 37.55137 | 126.80503 | 48 ft | 10 kts | 226° |
| 2026-04-26 07:30 | 37.55079 | 126.80433 | 50 ft | 13 kts | 220° |
| 2026-04-26 07:30 | 37.55006 | 126.80342 | 50 ft | 16 kts | 225° |
| 2026-04-26 07:30 | 37.54935 | 126.80252 | 48 ft | 5 kts | 226° |
| 2026-04-26 07:31 | 37.54906 | 126.80216 | 47 ft | 0 kts | 225° |
| 2026-04-26 07:31 | 37.54897 | 126.80204 | 48 ft | 6 kts | 225° |
| 2026-04-26 07:31 | 37.54838 | 126.80121 | 49 ft | 18 kts | 248° |
| 2026-04-26 07:31 | 37.54849 | 126.80041 | 50 ft | 11 kts | 313° |
| 2026-04-26 07:32 | 37.55084 | 126.79746 | 47 ft | 84 kts | 313° |
| 2026-04-26 07:32 | 37.55658 | 126.79035 | 61 ft | 142 kts | 313° |
| 2026-04-26 07:32 | 37.56422 | 126.78151 | 619 ft | 149 kts | 317° |
| 2026-04-26 07:32 | 37.57205 | 126.77276 | 1266 ft | 157 kts | 310° |
| 2026-04-26 07:33 | 37.57976 | 126.76200 | 1778 ft | 174 kts | 311° |
| 2026-04-26 07:33 | 37.58900 | 126.75005 | 2298 ft | 208 kts | 313° |
| 2026-04-26 07:33 | 37.60012 | 126.73608 | 2830 ft | 242 kts | 314° |
| 2026-04-26 07:33 | 37.61193 | 126.71942 | 3358 ft | 269 kts | 301° |
| 2026-04-26 07:34 | 37.61802 | 126.69606 | 3868 ft | 296 kts | 275° |
| 2026-04-26 07:34 | 37.61493 | 126.66942 | 4377 ft | 323 kts | 249° |
| 2026-04-26 07:34 | 37.60335 | 126.64463 | 4947 ft | 341 kts | 232° |
| 2026-04-26 07:34 | 37.58675 | 126.62256 | 5598 ft | 353 kts | 224° |
| 2026-04-26 07:35 | 37.56662 | 126.60437 | 6345 ft | 362 kts | 209° |
| 2026-04-26 07:35 | 37.54284 | 126.59309 | 7084 ft | 371 kts | 194° |
| 2026-04-26 07:35 | 37.51700 | 126.58962 | 7824 ft | 378 kts | 180° |
| 2026-04-26 07:35 | 37.49075 | 126.59433 | 8552 ft | 386 kts | 166° |
| 2026-04-26 07:36 | 37.46572 | 126.60730 | 9298 ft | 393 kts | 152° |
| 2026-04-26 07:36 | 37.44383 | 126.62811 | 10033 ft | 398 kts | 136° |
| 2026-04-26 07:36 | 37.42684 | 126.65554 | 10979 ft | 397 kts | 122° |
| 2026-04-26 07:36 | 37.41607 | 126.68735 | 11941 ft | 395 kts | 106° |
| 2026-04-26 07:37 | 37.41180 | 126.72094 | 12897 ft | 394 kts | 95° |
| 2026-04-26 07:37 | 37.41104 | 126.75538 | 13859 ft | 394 kts | 90° |
| 2026-04-26 07:37 | 37.41195 | 126.78991 | 14828 ft | 394 kts | 88° |
| 2026-04-26 07:37 | 37.41326 | 126.82459 | 15656 ft | 399 kts | 88° |
| 2026-04-26 07:38 | 37.41356 | 126.85971 | 16332 ft | 405 kts | 91° |
| 2026-04-26 07:38 | 37.41303 | 126.89542 | 17008 ft | 411 kts | 91° |
| 2026-04-26 07:38 | 37.41366 | 126.93149 | 17678 ft | 415 kts | 85° |
| 2026-04-26 07:38 | 37.41788 | 126.96748 | 18344 ft | 418 kts | 78° |
| 2026-04-26 07:39 | 37.42429 | 127.00335 | 19021 ft | 421 kts | 76° |
| 2026-04-26 07:39 | 37.43151 | 127.03922 | 19702 ft | 424 kts | 75° |
| 2026-04-26 07:39 | 37.43827 | 127.07551 | 20365 ft | 429 kts | 78° |
| 2026-04-26 07:39 | 37.44380 | 127.11259 | 21047 ft | 433 kts | 80° |
| 2026-04-26 07:40 | 37.44933 | 127.14989 | 21720 ft | 436 kts | 78° |
| 2026-04-26 07:40 | 37.45570 | 127.18734 | 22359 ft | 440 kts | 77° |
| 2026-04-26 07:40 | 37.46230 | 127.22524 | 22884 ft | 446 kts | 78° |
| 2026-04-26 07:40 | 37.46849 | 127.26374 | 23411 ft | 452 kts | 79° |
| 2026-04-26 07:41 | 37.47455 | 127.30275 | 23937 ft | 456 kts | 79° |
| 2026-04-26 07:41 | 37.48085 | 127.34166 | 24458 ft | 460 kts | 78° |
| 2026-04-26 07:41 | 37.48745 | 127.38131 | 24984 ft | 464 kts | 78° |
| 2026-04-26 07:41 | 37.49393 | 127.42117 | 25509 ft | 466 kts | 79° |
| 2026-04-26 07:42 | 37.50028 | 127.46137 | 26035 ft | 468 kts | 79° |
| 2026-04-26 07:42 | 37.50672 | 127.50174 | 26480 ft | 473 kts | 79° |
| 2026-04-26 07:42 | 37.51331 | 127.54251 | 26829 ft | 478 kts | 79° |
| 2026-04-26 07:42 | 37.51995 | 127.58381 | 27182 ft | 483 kts | 79° |
| 2026-04-26 07:43 | 37.52657 | 127.62554 | 27534 ft | 488 kts | 80° |
| 2026-04-26 07:43 | 37.53322 | 127.66764 | 27886 ft | 492 kts | 80° |
| 2026-04-26 07:43 | 37.53999 | 127.71011 | 28239 ft | 496 kts | 80° |
| 2026-04-26 07:43 | 37.54680 | 127.75290 | 28591 ft | 499 kts | 80° |
| 2026-04-26 07:44 | 37.55360 | 127.79590 | 28944 ft | 502 kts | 80° |
| 2026-04-26 07:44 | 37.56039 | 127.83911 | 29294 ft | 505 kts | 80° |
| 2026-04-26 07:44 | 37.56725 | 127.88265 | 29643 ft | 507 kts | 81° |
| 2026-04-26 07:44 | 37.57412 | 127.92631 | 29992 ft | 508 kts | 81° |
| 2026-04-26 07:45 | 37.58096 | 127.97013 | 30345 ft | 510 kts | 81° |
| 2026-04-26 07:45 | 37.58782 | 128.01418 | 30696 ft | 511 kts | 81° |
| 2026-04-26 07:45 | 37.59463 | 128.05770 | 31042 ft | 512 kts | 81° |
| 2026-04-26 07:45 | 37.60150 | 128.10185 | 31392 ft | 513 kts | 81° |
| 2026-04-26 07:46 | 37.60833 | 128.14605 | 31741 ft | 513 kts | 81° |
| 2026-04-26 07:46 | 37.61514 | 128.19019 | 32090 ft | 513 kts | 81° |
| 2026-04-26 07:46 | 37.62196 | 128.23433 | 32439 ft | 513 kts | 81° |
| 2026-04-26 07:46 | 37.62878 | 128.27859 | 32789 ft | 513 kts | 81° |
| 2026-04-26 07:47 | 37.63557 | 128.32299 | 32855 ft | 519 kts | 81° |
| 2026-04-26 07:47 | 37.64928 | 128.41281 | 32861 ft | 519 kts | 81° |
| 2026-04-26 07:48 | 37.66291 | 128.50243 | 32864 ft | 521 kts | 81° |
| 2026-04-26 07:48 | 37.67649 | 128.59234 | 32870 ft | 520 kts | 82° |
| 2026-04-26 07:49 | 37.68882 | 128.68242 | 32881 ft | 519 kts | 89° |
| 2026-04-26 07:49 | 37.68239 | 128.77140 | 32901 ft | 508 kts | 110° |
| 2026-04-26 07:50 | 37.65464 | 128.85186 | 32919 ft | 496 kts | 125° |
| 2026-04-26 07:50 | 37.63680 | 128.88905 | 32918 ft | 493 kts | 129° |
| 2026-04-26 07:50 | 37.60591 | 128.94956 | 32921 ft | 494 kts | 127° |
| 2026-04-26 07:51 | 37.57130 | 129.02473 | 32921 ft | 495 kts | 127° |
| 2026-04-26 07:51 | 37.53498 | 129.09825 | 32925 ft | 494 kts | 128° |
| 2026-04-26 07:52 | 37.49389 | 129.18456 | 32937 ft | 493 kts | 128° |
| 2026-04-26 07:52 | 37.46379 | 129.24615 | 32937 ft | 493 kts | 128° |
| 2026-04-26 07:53 | 37.42810 | 129.31997 | 32937 ft | 493 kts | 128° |
| 2026-04-26 07:53 | 37.39237 | 129.39359 | 32937 ft | 493 kts | 128° |
| 2026-04-26 07:54 | 37.35658 | 129.46712 | 32937 ft | 493 kts | 128° |
| 2026-04-26 07:54 | 37.32080 | 129.54059 | 32938 ft | 492 kts | 129° |
| 2026-04-26 07:55 | 37.28524 | 129.61330 | 32937 ft | 492 kts | 129° |
| 2026-04-26 07:55 | 37.24941 | 129.68656 | 32937 ft | 492 kts | 129° |
| 2026-04-26 07:56 | 37.21344 | 129.75978 | 32938 ft | 492 kts | 129° |
| 2026-04-26 07:56 | 37.17759 | 129.83275 | 32937 ft | 491 kts | 129° |
| 2026-04-26 07:57 | 37.14165 | 129.90561 | 32938 ft | 491 kts | 129° |
| 2026-04-26 07:57 | 37.10567 | 129.97847 | 32940 ft | 491 kts | 129° |
| 2026-04-26 07:58 | 37.06992 | 130.05067 | 32936 ft | 493 kts | 131° |
| 2026-04-26 07:58 | 37.03371 | 130.12364 | 32938 ft | 493 kts | 131° |
| 2026-04-26 07:59 | 36.99749 | 130.19650 | 32938 ft | 493 kts | 131° |
| 2026-04-26 07:59 | 36.96118 | 130.26934 | 32938 ft | 493 kts | 131° |
| 2026-04-26 08:00 | 36.92483 | 130.34217 | 32940 ft | 493 kts | 131° |
| 2026-04-26 08:00 | 36.88856 | 130.41459 | 32934 ft | 492 kts | 131° |
| 2026-04-26 08:01 | 36.85218 | 130.48714 | 32933 ft | 494 kts | 132° |
| 2026-04-26 08:01 | 36.81566 | 130.55980 | 32935 ft | 494 kts | 132° |
| 2026-04-26 08:02 | 36.77914 | 130.63230 | 32936 ft | 494 kts | 132° |
| 2026-04-26 08:02 | 36.74252 | 130.70481 | 32935 ft | 494 kts | 132° |
| 2026-04-26 08:03 | 36.70588 | 130.77727 | 32934 ft | 494 kts | 132° |
| 2026-04-26 08:03 | 36.66918 | 130.84969 | 32935 ft | 494 kts | 133° |
| 2026-04-26 08:04 | 36.63242 | 130.92205 | 32935 ft | 494 kts | 133° |
| 2026-04-26 08:04 | 36.59581 | 130.99398 | 32936 ft | 494 kts | 133° |
| 2026-04-26 08:05 | 36.55892 | 131.06623 | 32933 ft | 495 kts | 133° |
| 2026-04-26 08:05 | 36.52191 | 131.13867 | 32935 ft | 496 kts | 133° |
| 2026-04-26 08:06 | 36.48480 | 131.21119 | 32935 ft | 496 kts | 134° |
| 2026-04-26 08:06 | 36.44780 | 131.28307 | 32936 ft | 499 kts | 134° |
| 2026-04-26 08:07 | 36.41053 | 131.35569 | 32936 ft | 498 kts | 134° |
| 2026-04-26 08:07 | 36.37384 | 131.42874 | 32931 ft | 507 kts | 129° |
| 2026-04-26 08:08 | 36.35883 | 131.46893 | 32941 ft | 518 kts | 124° |
| 2026-04-26 08:08 | 36.34605 | 131.51099 | 32941 ft | 524 kts | 120° |
| 2026-04-26 08:08 | 36.32272 | 131.59695 | 32944 ft | 525 kts | 121° |
| 2026-04-26 08:09 | 36.29563 | 131.68047 | 32946 ft | 522 kts | 123° |
| 2026-04-26 08:09 | 36.27043 | 131.76549 | 32950 ft | 527 kts | 122° |
| 2026-04-26 08:10 | 36.24429 | 131.84926 | 32949 ft | 524 kts | 124° |
| 2026-04-26 08:10 | 36.21831 | 131.93399 | 32948 ft | 528 kts | 122° |
| 2026-04-26 08:11 | 36.19215 | 132.01842 | 32948 ft | 524 kts | 123° |
| 2026-04-26 08:11 | 36.16591 | 132.10278 | 32950 ft | 526 kts | 123° |
| 2026-04-26 08:12 | 36.13973 | 132.18725 | 32950 ft | 525 kts | 124° |
| 2026-04-26 08:12 | 36.11332 | 132.27142 | 32948 ft | 527 kts | 123° |
| 2026-04-26 08:13 | 36.08710 | 132.35575 | 32953 ft | 525 kts | 123° |
| 2026-04-26 08:13 | 36.06052 | 132.43984 | 32948 ft | 525 kts | 123° |
| 2026-04-26 08:14 | 36.03405 | 132.52419 | 32946 ft | 528 kts | 123° |
| 2026-04-26 08:14 | 36.00737 | 132.60871 | 32948 ft | 529 kts | 123° |
| 2026-04-26 08:15 | 35.98083 | 132.69262 | 32952 ft | 525 kts | 124° |
| 2026-04-26 08:15 | 35.95413 | 132.77666 | 32954 ft | 526 kts | 124° |
| 2026-04-26 08:16 | 35.92731 | 132.86074 | 32949 ft | 526 kts | 124° |
| 2026-04-26 08:16 | 35.90039 | 132.94506 | 32943 ft | 528 kts | 124° |
| 2026-04-26 08:17 | 35.87330 | 133.02977 | 32941 ft | 531 kts | 124° |
| 2026-04-26 08:17 | 35.84627 | 133.11380 | 32943 ft | 531 kts | 124° |
| 2026-04-26 08:18 | 35.81900 | 133.19853 | 32947 ft | 531 kts | 124° |
| 2026-04-26 08:18 | 35.79168 | 133.28306 | 32943 ft | 531 kts | 124° |
| 2026-04-26 08:19 | 35.76426 | 133.36759 | 32941 ft | 533 kts | 124° |
| 2026-04-26 08:19 | 35.73671 | 133.45252 | 32941 ft | 536 kts | 124° |
| 2026-04-26 08:20 | 35.70896 | 133.53765 | 32942 ft | 536 kts | 124° |
| 2026-04-26 08:20 | 35.68124 | 133.62268 | 32943 ft | 536 kts | 124° |
| 2026-04-26 08:21 | 35.65332 | 133.70761 | 32941 ft | 535 kts | 125° |
| 2026-04-26 08:21 | 35.62547 | 133.79244 | 32943 ft | 536 kts | 124° |
| 2026-04-26 08:22 | 35.61066 | 133.83399 | 32937 ft | 520 kts | 133° |
| 2026-04-26 08:22 | 35.58958 | 133.86794 | 32947 ft | 481 kts | 152° |
| 2026-04-26 08:22 | 35.56306 | 133.88972 | 32956 ft | 442 kts | 171° |
| 2026-04-26 08:22 | 35.53467 | 133.89829 | 32960 ft | 405 kts | 189° |
| 2026-04-26 08:23 | 35.50782 | 133.89409 | 32966 ft | 379 kts | 207° |
| 2026-04-26 08:23 | 35.48599 | 133.87788 | 32963 ft | 364 kts | 227° |
| 2026-04-26 08:23 | 35.47157 | 133.85255 | 32967 ft | 365 kts | 239° |
| 2026-04-26 08:23 | 35.45722 | 133.82750 | 32964 ft | 364 kts | 230° |
| 2026-04-26 08:24 | 35.41883 | 133.78688 | 32951 ft | 374 kts | 213° |
| 2026-04-26 08:24 | 35.39389 | 133.77624 | 32957 ft | 386 kts | 200° |
| 2026-04-26 08:24 | 35.36648 | 133.77406 | 32948 ft | 406 kts | 187° |
| 2026-04-26 08:25 | 35.33806 | 133.78175 | 32942 ft | 433 kts | 172° |
| 2026-04-26 08:25 | 35.31073 | 133.80068 | 32963 ft | 470 kts | 155° |
| 2026-04-26 08:25 | 35.28809 | 133.83086 | 32967 ft | 506 kts | 137° |
| 2026-04-26 08:25 | 35.27214 | 133.87070 | 32954 ft | 536 kts | 121° |
| 2026-04-26 08:26 | 35.26262 | 133.91559 | 32959 ft | 555 kts | 111° |
| 2026-04-26 08:26 | 35.25769 | 133.96288 | 32969 ft | 566 kts | 105° |
| 2026-04-26 08:26 | 35.25250 | 134.05926 | 32967 ft | 568 kts | 104° |
| 2026-04-26 08:27 | 35.24067 | 134.15337 | 32965 ft | 553 kts | 112° |
| 2026-04-26 08:27 | 35.22679 | 134.24625 | 32959 ft | 561 kts | 108° |
| 2026-04-26 08:28 | 35.21711 | 134.34103 | 32959 ft | 559 kts | 109° |
| 2026-04-26 08:28 | 35.20325 | 134.43440 | 32723 ft | 557 kts | 109° |
| 2026-04-26 08:29 | 35.19788 | 134.48044 | 32457 ft | 538 kts | 108° |
| 2026-04-26 08:29 | 35.19307 | 134.52501 | 32166 ft | 524 kts | 108° |
| 2026-04-26 08:29 | 35.18713 | 134.56886 | 31889 ft | 521 kts | 110° |
| 2026-04-26 08:29 | 35.18076 | 134.61183 | 31610 ft | 518 kts | 109° |
| 2026-04-26 08:30 | 35.17508 | 134.65538 | 31334 ft | 518 kts | 108° |
| 2026-04-26 08:30 | 35.16978 | 134.69893 | 31068 ft | 512 kts | 109° |
| 2026-04-26 08:30 | 35.16295 | 134.74154 | 30786 ft | 508 kts | 111° |
| 2026-04-26 08:30 | 35.15601 | 134.78383 | 30503 ft | 505 kts | 111° |
| 2026-04-26 08:31 | 35.14755 | 134.82504 | 30235 ft | 496 kts | 115° |
| 2026-04-26 08:31 | 35.13824 | 134.86561 | 29968 ft | 496 kts | 114° |
| 2026-04-26 08:31 | 35.13047 | 134.90603 | 29686 ft | 485 kts | 109° |
| 2026-04-26 08:31 | 35.12596 | 134.94617 | 29162 ft | 459 kts | 104° |
| 2026-04-26 08:32 | 35.12311 | 134.98391 | 28156 ft | 447 kts | 103° |
| 2026-04-26 08:32 | 35.11951 | 135.02093 | 27130 ft | 432 kts | 107° |
| 2026-04-26 08:32 | 35.11439 | 135.05658 | 26101 ft | 419 kts | 108° |
| 2026-04-26 08:32 | 35.10943 | 135.09132 | 25083 ft | 410 kts | 105° |
| 2026-04-26 08:33 | 35.10537 | 135.12538 | 24063 ft | 402 kts | 103° |
| 2026-04-26 08:33 | 35.10158 | 135.15879 | 23054 ft | 393 kts | 103° |
| 2026-04-26 08:33 | 35.09754 | 135.19140 | 22034 ft | 384 kts | 103° |
| 2026-04-26 08:33 | 35.09341 | 135.22324 | 21010 ft | 376 kts | 103° |
| 2026-04-26 08:34 | 35.08947 | 135.25449 | 19992 ft | 368 kts | 102° |
| 2026-04-26 08:34 | 35.08573 | 135.28509 | 18982 ft | 361 kts | 102° |
| 2026-04-26 08:34 | 35.08204 | 135.31508 | 17960 ft | 353 kts | 102° |
| 2026-04-26 08:34 | 35.07834 | 135.34440 | 16942 ft | 346 kts | 102° |
| 2026-04-26 08:35 | 35.07480 | 135.37330 | 15921 ft | 339 kts | 102° |
| 2026-04-26 08:35 | 35.07126 | 135.40149 | 14900 ft | 333 kts | 102° |
| 2026-04-26 08:35 | 35.06887 | 135.41981 | 14230 ft | 329 kts | 102° |
| 2026-04-26 08:35 | 35.06539 | 135.44725 | 13231 ft | 324 kts | 101° |
| 2026-04-26 08:36 | 35.06130 | 135.48165 | 12976 ft | 284 kts | 102° |
| 2026-04-26 08:36 | 35.05833 | 135.50396 | 12972 ft | 260 kts | 102° |
| 2026-04-26 08:36 | 35.05528 | 135.52681 | 12979 ft | 286 kts | 102° |
| 2026-04-26 08:36 | 35.05313 | 135.54353 | 12989 ft | 305 kts | 101° |
| 2026-04-26 08:37 | 35.04993 | 135.56986 | 12998 ft | 315 kts | 101° |
| 2026-04-26 08:37 | 35.04555 | 135.60477 | 12992 ft | 314 kts | 101° |
| 2026-04-26 08:37 | 35.04322 | 135.62254 | 12997 ft | 315 kts | 102° |
| 2026-04-26 08:37 | 35.03866 | 135.65741 | 12993 ft | 314 kts | 101° |
| 2026-04-26 08:38 | 35.03641 | 135.67530 | 12999 ft | 315 kts | 101° |
| 2026-04-26 08:38 | 35.03313 | 135.70134 | 12997 ft | 314 kts | 101° |
| 2026-04-26 08:38 | 35.02974 | 135.72763 | 12998 ft | 314 kts | 102° |
| 2026-04-26 08:38 | 35.02632 | 135.75396 | 12996 ft | 314 kts | 101° |
| 2026-04-26 08:39 | 35.02292 | 135.78037 | 12956 ft | 313 kts | 101° |
| 2026-04-26 08:39 | 35.01953 | 135.80668 | 12959 ft | 314 kts | 102° |
| 2026-04-26 08:39 | 35.01851 | 135.83319 | 12937 ft | 317 kts | 84° |
| 2026-04-26 08:39 | 35.02217 | 135.85969 | 12959 ft | 317 kts | 81° |
| 2026-04-26 08:40 | 35.02963 | 135.88499 | 12949 ft | 321 kts | 57° |
| 2026-04-26 08:40 | 35.04597 | 135.90325 | 12927 ft | 321 kts | 26° |
| 2026-04-26 08:40 | 35.06706 | 135.91001 | 12729 ft | 317 kts | 358° |
| 2026-04-26 08:40 | 35.08798 | 135.90395 | 12446 ft | 308 kts | 328° |
| 2026-04-26 08:41 | 35.10464 | 135.88812 | 12169 ft | 305 kts | 322° |
| 2026-04-26 08:41 | 35.12437 | 135.87889 | 11880 ft | 309 kts | 353° |
| 2026-04-26 08:41 | 35.14557 | 135.88269 | 11600 ft | 311 kts | 23° |
| 2026-04-26 08:41 | 35.16275 | 135.89834 | 11322 ft | 311 kts | 51° |
| 2026-04-26 08:42 | 35.17434 | 135.92031 | 11053 ft | 306 kts | 66° |
| 2026-04-26 08:42 | 35.18174 | 135.94455 | 10769 ft | 304 kts | 75° |
| 2026-04-26 08:42 | 35.18708 | 135.96953 | 10476 ft | 301 kts | 77° |
| 2026-04-26 08:42 | 35.19268 | 135.99403 | 10181 ft | 300 kts | 74° |
| 2026-04-26 08:43 | 35.19911 | 136.01824 | 9875 ft | 298 kts | 73° |
| 2026-04-26 08:43 | 35.20542 | 136.04216 | 9582 ft | 295 kts | 74° |
| 2026-04-26 08:43 | 35.21139 | 136.06615 | 9279 ft | 293 kts | 75° |
| 2026-04-26 08:43 | 35.21725 | 136.08981 | 8980 ft | 290 kts | 74° |
| 2026-04-26 08:44 | 35.22319 | 136.11334 | 8678 ft | 289 kts | 74° |
| 2026-04-26 08:44 | 35.22917 | 136.13678 | 8376 ft | 287 kts | 73° |
| 2026-04-26 08:44 | 35.23592 | 136.15970 | 8074 ft | 286 kts | 69° |
| 2026-04-26 08:44 | 35.24449 | 136.18129 | 7771 ft | 285 kts | 63° |
| 2026-04-26 08:45 | 35.25407 | 136.20252 | 7475 ft | 284 kts | 63° |
| 2026-04-26 08:45 | 35.26303 | 136.22389 | 7178 ft | 282 kts | 65° |
| 2026-04-26 08:45 | 35.27158 | 136.24546 | 6981 ft | 279 kts | 65° |
| 2026-04-26 08:45 | 35.28024 | 136.26685 | 6978 ft | 281 kts | 65° |
| 2026-04-26 08:46 | 35.28908 | 136.28827 | 6977 ft | 281 kts | 64° |
| 2026-04-26 08:46 | 35.29785 | 136.30964 | 6975 ft | 282 kts | 65° |
| 2026-04-26 08:46 | 35.30660 | 136.33111 | 6971 ft | 282 kts | 65° |
| 2026-04-26 08:46 | 35.31532 | 136.35249 | 6976 ft | 282 kts | 65° |
| 2026-04-26 08:47 | 35.32406 | 136.37391 | 6971 ft | 282 kts | 65° |
| 2026-04-26 08:47 | 35.33282 | 136.39540 | 6883 ft | 282 kts | 65° |
| 2026-04-26 08:47 | 35.34153 | 136.41680 | 6658 ft | 280 kts | 65° |
| 2026-04-26 08:47 | 35.35020 | 136.43810 | 6432 ft | 279 kts | 65° |
| 2026-04-26 08:48 | 35.35874 | 136.45907 | 6208 ft | 278 kts | 65° |
| 2026-04-26 08:48 | 35.36719 | 136.47982 | 5986 ft | 261 kts | 65° |
| 2026-04-26 08:48 | 35.37496 | 136.49890 | 5737 ft | 241 kts | 65° |
| 2026-04-26 08:48 | 35.38218 | 136.51667 | 5500 ft | 225 kts | 65° |
| 2026-04-26 08:49 | 35.38896 | 136.53340 | 5251 ft | 214 kts | 65° |
| 2026-04-26 08:49 | 35.39554 | 136.54964 | 4997 ft | 211 kts | 65° |
| 2026-04-26 08:49 | 35.40192 | 136.56539 | 4974 ft | 205 kts | 65° |
| 2026-04-26 08:49 | 35.40830 | 136.58115 | 4966 ft | 207 kts | 65° |
| 2026-04-26 08:50 | 35.41476 | 136.59707 | 4673 ft | 208 kts | 65° |
| 2026-04-26 08:50 | 35.42120 | 136.61296 | 4360 ft | 208 kts | 65° |
| 2026-04-26 08:50 | 35.42764 | 136.62885 | 4075 ft | 207 kts | 65° |
| 2026-04-26 08:50 | 35.43401 | 136.64465 | 3783 ft | 206 kts | 65° |
| 2026-04-26 08:51 | 35.44662 | 136.67545 | 3181 ft | 195 kts | 64° |
| 2026-04-26 08:51 | 35.45275 | 136.68964 | 2985 ft | 182 kts | 64° |
| 2026-04-26 08:51 | 35.45873 | 136.70359 | 2972 ft | 186 kts | 64° |
| 2026-04-26 08:52 | 35.46473 | 136.71761 | 2973 ft | 185 kts | 64° |
| 2026-04-26 08:52 | 35.47064 | 136.73142 | 2976 ft | 171 kts | 64° |
| 2026-04-26 08:52 | 35.47557 | 136.74282 | 2945 ft | 135 kts | 64° |
| 2026-04-26 08:52 | 35.47982 | 136.75277 | 2959 ft | 131 kts | 65° |
| 2026-04-26 08:53 | 35.48401 | 136.76264 | 2958 ft | 133 kts | 66° |
| 2026-04-26 08:53 | 35.48606 | 136.77291 | 2871 ft | 118 kts | 94° |
| 2026-04-26 08:53 | 35.48250 | 136.78164 | 2698 ft | 115 kts | 133° |
| 2026-04-26 08:53 | 35.47569 | 136.78690 | 2531 ft | 120 kts | 153° |
| 2026-04-26 08:54 | 35.46740 | 136.79096 | 2475 ft | 133 kts | 158° |
| 2026-04-26 08:54 | 35.45871 | 136.79460 | 2468 ft | 128 kts | 159° |
| 2026-04-26 08:54 | 35.45023 | 136.79845 | 2301 ft | 135 kts | 155° |
| 2026-04-26 08:54 | 35.44131 | 136.80261 | 2194 ft | 137 kts | 159° |
| 2026-04-26 08:55 | 35.43232 | 136.80586 | 2186 ft | 133 kts | 159° |
| 2026-04-26 08:55 | 35.42382 | 136.81040 | 2130 ft | 137 kts | 149° |
| 2026-04-26 08:55 | 35.41580 | 136.81698 | 2098 ft | 139 kts | 143° |
| 2026-04-26 08:55 | 35.40793 | 136.82363 | 2046 ft | 136 kts | 146° |
| 2026-04-26 08:56 | 35.40006 | 136.82959 | 1976 ft | 135 kts | 146° |
| 2026-04-26 08:56 | 35.39186 | 136.83551 | 1874 ft | 137 kts | 149° |
| 2026-04-26 08:56 | 35.38376 | 136.84119 | 1848 ft | 134 kts | 147° |
| 2026-04-26 08:56 | 35.37577 | 136.84714 | 1765 ft | 136 kts | 146° |
| 2026-04-26 08:57 | 35.36752 | 136.85280 | 1690 ft | 136 kts | 149° |
| 2026-04-26 08:57 | 35.35923 | 136.85856 | 1609 ft | 137 kts | 148° |
| 2026-04-26 08:57 | 35.35094 | 136.86451 | 1511 ft | 139 kts | 147° |
| 2026-04-26 08:57 | 35.34246 | 136.87034 | 1451 ft | 140 kts | 152° |
| 2026-04-26 08:58 | 35.33364 | 136.87533 | 1435 ft | 139 kts | 154° |
| 2026-04-26 08:58 | 35.32508 | 136.88015 | 1317 ft | 135 kts | 152° |
| 2026-04-26 08:58 | 35.31698 | 136.88531 | 1148 ft | 129 kts | 152° |
| 2026-04-26 08:58 | 35.30902 | 136.89019 | 930 ft | 128 kts | 152° |
| 2026-04-26 08:59 | 35.30100 | 136.89481 | 720 ft | 127 kts | 154° |
| 2026-04-26 08:59 | 35.29288 | 136.89992 | 563 ft | 140 kts | 145° |
| 2026-04-26 08:59 | 35.28458 | 136.90592 | 459 ft | 133 kts | 152° |
| 2026-04-26 08:59 | 35.27662 | 136.91090 | 283 ft | 128 kts | 150° |
| 2026-04-26 09:00 | 35.26860 | 136.91606 | 142 ft | 130 kts | 151° |
| 2026-04-26 09:00 | 35.26102 | 136.92089 | 61 ft | 104 kts | 154° |
| 2026-04-26 09:00 | 35.25686 | 136.92350 | 62 ft | 38 kts | 152° |